createdAt,value
2022-11-03T00:06:05.413Z,3.75
2022-11-03T00:08:38.065Z,4.50
2022-11-03T00:11:14.058Z,7.75
2022-11-03T00:13:43.621Z,9.00
2022-11-03T00:16:12.863Z,8.50
2022-11-03T00:18:40.359Z,8.50
2022-11-03T00:21:12.750Z,2.25
2022-11-03T00:23:42.359Z,3.25
2022-11-03T00:26:22.945Z,13.00
2022-11-03T00:28:52.222Z,13.50
2022-11-03T00:31:23.420Z,10.00
2022-11-03T00:33:50.746Z,9.00
2022-11-03T00:36:23.316Z,9.00
2022-11-03T00:38:51.134Z,9.25
2022-11-03T00:41:21.018Z,5.25
2022-11-03T00:43:49.907Z,9.00
2022-11-03T00:46:17.552Z,7.00
2022-11-03T00:48:44.612Z,7.25
2022-11-03T00:51:22.214Z,7.25
2022-11-03T00:53:53.144Z,4.25
2022-11-03T00:56:27.353Z,5.25
2022-11-03T00:58:55.629Z,19.75
2022-11-03T01:01:24.983Z,11.75
2022-11-03T01:04:13.179Z,2.00
2022-11-03T01:06:52.181Z,40.75
2022-11-03T01:09:36.344Z,38.50
2022-11-03T01:12:18.352Z,39.50
2022-11-03T01:14:50.714Z,30.50
2022-11-03T01:17:28.691Z,26.00
2022-11-03T01:19:56.170Z,17.75
2022-11-03T01:22:24.405Z,10.00
2022-11-03T01:28:40.054Z,15.75
2022-11-03T01:31:09.557Z,25.50
2022-11-03T01:33:36.587Z,20.75
2022-11-03T01:36:04.174Z,19.75
2022-11-03T01:38:35.706Z,18.75
2022-11-03T01:41:04.419Z,19.00
2022-11-03T01:43:34.716Z,24.50
2022-11-03T01:46:19.186Z,24.25
2022-11-03T01:52:47.375Z,2.00
2022-11-03T01:55:18.109Z,12.75
2022-11-03T01:57:58.673Z,9.25
2022-11-03T02:00:25.730Z,9.25
2022-11-03T02:02:52.989Z,9.75
2022-11-03T02:05:23.856Z,13.50
2022-11-03T02:08:06.317Z,8.75
2022-11-03T02:10:53.447Z,9.00
2022-11-03T02:17:28.600Z,7.50
2022-11-03T02:20:16.244Z,3.50
2022-11-03T02:23:44.821Z,4.50
2022-11-03T02:26:32.011Z,3.00
2022-11-03T02:29:19.061Z,6.00
2022-11-03T02:32:04.613Z,4.25
2022-11-03T02:35:01.159Z,5.75
2022-11-03T02:37:32.636Z,11.00
2022-11-03T02:40:08.772Z,7.25
2022-11-03T02:42:38.173Z,8.00
2022-11-03T02:45:13.307Z,3.00
2022-11-03T02:47:43.956Z,7.00
2022-11-03T02:50:11.292Z,1.75
2022-11-03T02:52:42.913Z,2.00
2022-11-03T02:55:33.781Z,3.25
2022-11-03T02:58:08.273Z,1.00
2022-11-03T03:00:53.106Z,1.75
2022-11-03T03:03:30.222Z,2.25
2022-11-03T03:06:05.556Z,3.25
2022-11-03T03:08:35.269Z,2.25
2022-11-03T03:11:05.358Z,3.00
2022-11-03T03:13:33.258Z,4.75
2022-11-03T03:16:17.200Z,2.25
2022-11-03T03:18:50.333Z,3.75
2022-11-03T03:21:28.592Z,2.50
2022-11-03T03:24:20.689Z,2.75
2022-11-03T03:26:50.305Z,2.00
2022-11-03T03:29:29.212Z,1.00
2022-11-03T03:32:00.208Z,2.75
2022-11-03T03:34:35.074Z,3.00
2022-11-03T03:37:03.860Z,3.25
2022-11-03T03:39:36.525Z,2.50
2022-11-03T03:42:05.778Z,2.00
2022-11-03T03:44:34.272Z,3.50
2022-11-03T03:47:08.000Z,5.50
2022-11-03T03:49:34.915Z,4.50
2022-11-03T03:52:03.999Z,6.75
2022-11-03T03:54:31.005Z,7.50
2022-11-03T03:57:03.437Z,9.25
2022-11-03T03:59:30.944Z,6.75
2022-11-03T04:01:58.690Z,6.50
2022-11-03T04:04:25.900Z,8.75
2022-11-03T04:07:12.870Z,12.50
2022-11-03T04:09:39.769Z,10.50
2022-11-03T04:12:27.597Z,8.75
2022-11-03T04:15:13.235Z,8.00
2022-11-03T04:18:05.076Z,8.50
2022-11-03T04:20:51.241Z,8.25
2022-11-03T04:23:18.858Z,6.25
2022-11-03T04:25:52.547Z,7.00
2022-11-03T04:28:19.611Z,6.75
2022-11-03T04:30:46.848Z,6.75
2022-11-03T04:33:20.051Z,11.00
2022-11-03T04:35:48.310Z,10.00
2022-11-03T04:38:15.165Z,8.00
2022-11-03T04:40:49.156Z,5.50
2022-11-03T04:43:21.649Z,18.75
2022-11-03T04:45:50.025Z,12.00
2022-11-03T04:48:19.830Z,11.25
2022-11-03T04:50:49.426Z,9.25
2022-11-03T04:53:20.886Z,8.25
2022-11-03T04:55:51.611Z,5.00
2022-11-03T04:58:24.311Z,6.50
2022-11-03T05:00:57.548Z,6.00
2022-11-03T05:03:36.433Z,2.00
2022-11-03T05:06:30.402Z,31.75
2022-11-03T05:09:02.294Z,31.00
2022-11-03T05:11:29.203Z,26.33
2022-11-03T05:14:01.137Z,15.75
2022-11-03T05:16:29.445Z,34.00
2022-11-03T05:18:57.174Z,37.00
2022-11-03T05:21:27.432Z,33.00
2022-11-03T05:23:58.669Z,27.50
2022-11-03T05:26:31.358Z,12.25
2022-11-03T05:29:41.105Z,16.75
2022-11-03T05:32:16.957Z,31.33
2022-11-03T05:34:47.162Z,21.00
2022-11-03T05:37:33.090Z,10.50
2022-11-03T05:40:15.087Z,10.75
2022-11-03T05:42:45.498Z,13.00
2022-11-03T05:45:35.584Z,25.50
2022-11-03T05:48:06.922Z,20.67
2022-11-03T05:50:36.018Z,48.00
2022-11-03T05:53:05.732Z,51.33
2022-11-03T05:55:36.181Z,54.33
2022-11-03T05:58:22.115Z,48.67
2022-11-03T06:00:49.213Z,33.00
2022-11-03T06:03:29.863Z,20.00
2022-11-03T06:05:58.846Z,15.00
2022-11-03T06:08:38.941Z,10.75
2022-11-03T06:11:16.604Z,16.00
2022-11-03T06:13:43.748Z,15.75
2022-11-03T06:16:16.832Z,22.50
2022-11-03T06:18:43.885Z,21.25
2022-11-03T06:21:19.632Z,16.25
2022-11-03T06:23:46.784Z,15.00
2022-11-03T06:26:19.707Z,11.00
2022-11-03T06:28:48.557Z,10.50
2022-11-03T06:31:39.360Z,10.00
2022-11-03T06:34:17.981Z,12.00
2022-11-03T06:36:45.027Z,11.00
2022-11-03T06:39:24.259Z,8.25
2022-11-03T06:41:52.212Z,9.50
2022-11-03T06:44:26.241Z,13.00
2022-11-03T06:47:00.455Z,16.50
2022-11-03T06:49:35.000Z,11.00
2022-11-03T06:52:26.201Z,7.50
2022-11-03T06:55:16.735Z,10.00
2022-11-03T06:57:48.136Z,14.00
2022-11-03T07:00:35.537Z,9.50
2022-11-03T07:03:07.462Z,15.50
2022-11-03T07:05:35.252Z,22.50
2022-11-03T07:08:27.635Z,24.75
2022-11-03T07:11:05.423Z,23.00
2022-11-03T07:13:34.939Z,26.50
2022-11-03T07:16:02.506Z,24.00
2022-11-03T07:18:35.787Z,18.75
2022-11-03T07:21:14.320Z,16.25
2022-11-03T07:23:44.660Z,13.00
2022-11-03T07:26:14.101Z,13.00
2022-11-03T07:28:41.224Z,11.75
2022-11-03T07:31:17.123Z,13.50
2022-11-03T07:33:44.242Z,20.50
2022-11-03T07:36:18.540Z,27.50
2022-11-03T07:38:48.494Z,23.25
2022-11-03T07:41:28.121Z,32.00
2022-11-03T07:44:00.014Z,26.50
2022-11-03T07:46:27.663Z,28.50
2022-11-03T07:48:59.838Z,25.25
2022-11-03T07:51:30.056Z,29.25
2022-11-03T07:54:10.522Z,26.25
2022-11-03T07:56:46.117Z,35.25
2022-11-03T07:59:20.653Z,33.25
2022-11-03T08:01:54.227Z,26.25
2022-11-03T08:04:39.746Z,40.50
2022-11-03T08:07:06.668Z,52.33
2022-11-03T08:09:33.640Z,45.67
2022-11-03T08:12:01.094Z,39.00
2022-11-03T08:14:28.161Z,43.00
2022-11-03T08:16:55.087Z,39.50
2022-11-03T08:19:21.965Z,26.00
2022-11-03T08:21:48.940Z,21.50
2022-11-03T08:24:16.228Z,21.00
2022-11-03T08:26:43.115Z,16.50
2022-11-03T08:29:10.365Z,20.25
2022-11-03T08:31:37.270Z,15.50
2022-11-03T08:34:04.132Z,17.50
2022-11-03T08:36:31.178Z,21.00
2022-11-03T08:38:58.117Z,41.25
2022-11-03T08:41:25.034Z,43.25
2022-11-03T08:43:51.949Z,51.00
2022-11-03T08:46:18.934Z,45.50
2022-11-03T08:48:46.598Z,54.67
2022-11-03T08:51:15.194Z,44.50
2022-11-03T08:53:43.207Z,46.25
2022-11-03T08:56:12.993Z,42.00
2022-11-03T08:58:44.958Z,43.25
2022-11-03T09:01:12.582Z,35.25
2022-11-03T09:03:40.234Z,42.00
2022-11-03T09:06:08.274Z,43.00
2022-11-03T09:11:22.209Z,24.75
2022-11-03T09:13:49.078Z,19.75
2022-11-03T09:16:16.299Z,14.75
2022-11-03T09:18:43.207Z,8.25
2022-11-03T09:21:10.154Z,8.50
2022-11-03T09:23:37.074Z,5.75
2022-11-03T09:26:06.059Z,6.00
2022-11-03T09:28:33.306Z,6.25
2022-11-03T09:31:00.305Z,6.00
2022-11-03T09:33:27.507Z,7.75
2022-11-03T09:35:54.425Z,5.25
2022-11-03T09:38:21.394Z,15.00
2022-11-03T09:43:20.745Z,5.75
2022-11-03T09:45:47.899Z,4.00
2022-11-03T09:48:15.450Z,11.00
2022-11-03T09:50:43.241Z,6.00
2022-11-03T09:53:12.638Z,2.00
2022-11-03T09:55:40.398Z,3.00
2022-11-03T09:58:16.369Z,3.50
2022-11-03T10:00:44.432Z,1.25
2022-11-03T10:03:13.802Z,5.75
2022-11-03T10:05:42.470Z,3.50
2022-11-03T10:08:33.333Z,2.00
2022-11-03T10:11:02.495Z,3.00
2022-11-03T10:13:40.196Z,3.50
2022-11-03T10:16:12.901Z,2.75
2022-11-03T10:18:40.102Z,1.50
2022-11-03T10:21:14.836Z,2.00
2022-11-03T10:23:41.702Z,1.50
2022-11-03T10:26:11.302Z,2.25
2022-11-03T10:28:38.658Z,1.00
2022-11-03T10:31:13.307Z,2.00
2022-11-03T10:34:01.027Z,1.50
2022-11-03T10:36:30.197Z,1.50
2022-11-03T10:38:58.193Z,1.00
2022-11-03T10:41:34.660Z,0.50
2022-11-03T10:44:16.865Z,5.00
2022-11-03T10:47:00.612Z,4.00
2022-11-03T10:49:33.310Z,1.50
2022-11-03T10:52:19.801Z,3.00
2022-11-03T10:54:48.141Z,4.50
2022-11-03T10:57:16.940Z,7.25
2022-11-03T10:59:46.148Z,6.25
2022-11-03T11:02:20.512Z,6.50
2022-11-03T11:04:59.404Z,7.00
2022-11-03T11:07:33.292Z,3.00
2022-11-03T11:10:18.282Z,3.25
2022-11-03T11:13:18.010Z,7.50
2022-11-03T11:16:00.817Z,5.00
2022-11-03T11:18:30.816Z,3.00
2022-11-03T11:20:58.625Z,3.00
2022-11-03T11:23:28.923Z,2.00
2022-11-03T11:26:11.169Z,4.00
2022-11-03T11:28:43.470Z,3.00
2022-11-03T11:31:30.676Z,2.00
2022-11-03T11:34:10.224Z,4.25
2022-11-03T11:36:39.281Z,5.25
2022-11-03T11:39:11.577Z,6.00
2022-11-03T11:42:07.496Z,3.00
2022-11-03T11:44:40.365Z,2.00
2022-11-03T11:47:28.251Z,3.25
2022-11-03T11:50:12.656Z,5.00
2022-11-03T11:52:46.491Z,3.75
2022-11-03T11:55:25.315Z,4.25
2022-11-03T11:57:53.856Z,4.00
2022-11-03T12:00:26.290Z,4.75
2022-11-03T12:02:54.346Z,3.25
2022-11-03T12:05:26.289Z,2.00
2022-11-03T12:07:53.214Z,3.00
2022-11-03T12:10:23.536Z,2.00
2022-11-03T12:12:50.803Z,1.00
2022-11-03T12:15:55.381Z,1.00
2022-11-03T12:18:39.177Z,1.00
2022-11-03T12:21:15.722Z,1.00
2022-11-03T12:23:45.349Z,0.00
2022-11-03T12:26:41.028Z,1.00
2022-11-03T12:29:08.329Z,0.00
2022-11-03T12:31:37.010Z,0.00
2022-11-03T12:34:04.124Z,0.33
2022-11-03T12:36:31.050Z,1.00
2022-11-03T12:38:57.926Z,1.00
2022-11-03T12:41:25.017Z,0.00
2022-11-03T12:43:53.524Z,1.00
2022-11-03T12:46:21.714Z,1.00
2022-11-03T12:48:49.414Z,1.00
2022-11-03T12:51:18.493Z,2.00
2022-11-03T12:53:46.030Z,1.00
2022-11-03T12:56:14.600Z,1.00
2022-11-03T12:58:41.652Z,1.00
2022-11-03T13:01:09.347Z,2.00
2022-11-03T13:03:37.108Z,3.00
2022-11-03T13:06:05.767Z,2.00
2022-11-03T13:08:32.766Z,1.00
2022-11-03T13:11:00.098Z,2.00
2022-11-03T13:13:27.297Z,4.00
2022-11-03T13:15:54.594Z,1.67
2022-11-03T13:18:22.674Z,2.00
2022-11-03T13:20:49.595Z,1.00
2022-11-03T13:23:18.923Z,0.00
2022-11-03T13:25:49.070Z,1.75
2022-11-03T13:28:16.033Z,5.00
2022-11-03T13:30:42.998Z,5.25
2022-11-03T13:33:10.175Z,5.00
2022-11-03T13:35:37.506Z,5.00
2022-11-03T13:38:04.440Z,6.00
2022-11-03T13:43:18.522Z,5.00
2022-11-03T13:45:45.557Z,7.75
2022-11-03T13:51:00.526Z,9.25
2022-11-03T13:56:20.708Z,6.25
2022-11-03T14:01:36.845Z,3.75
2022-11-03T14:06:51.101Z,4.00
2022-11-03T14:09:18.049Z,7.00
2022-11-03T14:12:03.468Z,7.00
2022-11-03T14:14:30.616Z,6.50
2022-11-03T14:16:57.632Z,6.00
2022-11-03T14:19:31.750Z,6.50
2022-11-03T14:22:03.778Z,3.50
2022-11-03T14:24:30.696Z,6.00
2022-11-03T14:26:57.557Z,6.00
2022-11-03T14:29:24.641Z,6.00
2022-11-03T14:31:51.526Z,5.00
2022-11-03T14:34:18.575Z,6.50
2022-11-03T14:36:45.523Z,11.00
2022-11-03T14:39:12.629Z,9.75
2022-11-03T14:41:58.295Z,7.00
2022-11-03T14:44:25.253Z,9.75
2022-11-03T14:46:52.271Z,10.50
2022-11-03T14:49:19.424Z,6.75
2022-11-03T14:51:46.360Z,4.00
2022-11-03T14:54:13.382Z,3.00
2022-11-03T14:56:40.358Z,2.25
2022-11-03T14:59:07.358Z,2.25
2022-11-03T15:01:36.767Z,6.75
2022-11-03T15:04:03.994Z,8.50
2022-11-03T15:06:31.146Z,6.25
2022-11-03T15:08:58.346Z,9.50
2022-11-03T15:11:25.304Z,12.00
2022-11-03T15:13:52.868Z,21.00
2022-11-03T15:16:19.819Z,35.50
2022-11-03T15:18:46.962Z,28.50
2022-11-03T15:21:14.219Z,19.25
2022-11-03T15:26:28.384Z,33.25
2022-11-03T15:28:55.427Z,18.50
2022-11-03T15:31:23.842Z,31.75
2022-11-03T15:33:50.986Z,81.25
2022-11-03T15:36:17.948Z,57.00
2022-11-03T15:38:44.888Z,73.33
2022-11-03T15:41:18.177Z,47.67
2022-11-03T15:43:47.835Z,33.75
2022-11-03T15:46:18.358Z,20.00
2022-11-03T15:48:45.873Z,12.50
2022-11-03T15:51:13.085Z,8.25
2022-11-03T15:53:40.432Z,9.25
2022-11-03T15:56:07.794Z,11.00
2022-11-03T15:58:34.921Z,14.50
2022-11-03T16:01:03.380Z,21.00
2022-11-03T16:03:32.328Z,19.00
2022-11-03T16:05:59.962Z,16.75
2022-11-03T16:08:27.595Z,15.00
2022-11-03T16:10:58.146Z,22.75
2022-11-03T16:13:25.814Z,18.75
2022-11-03T16:15:56.204Z,13.25
2022-11-03T16:18:23.474Z,21.25
2022-11-03T16:20:50.368Z,19.00
2022-11-03T16:23:17.373Z,18.00
2022-11-03T16:25:44.234Z,20.25
2022-11-03T16:28:11.292Z,26.25
2022-11-03T16:30:38.906Z,32.75
2022-11-03T16:33:05.999Z,36.75
2022-11-03T16:35:34.240Z,22.75
2022-11-03T16:38:01.533Z,51.67
2022-11-03T16:40:28.421Z,43.00
2022-11-03T16:42:55.372Z,31.50
2022-11-03T16:45:25.196Z,22.25
2022-11-03T16:47:52.457Z,19.00
2022-11-03T16:50:20.140Z,17.25
2022-11-03T16:52:48.587Z,21.00
2022-11-03T16:55:17.394Z,12.75
2022-11-03T16:57:44.926Z,29.50
2022-11-03T17:00:16.122Z,14.25
2022-11-03T17:02:43.387Z,13.75
2022-11-03T17:05:11.406Z,11.00
2022-11-03T17:07:38.592Z,21.25
2022-11-03T17:10:07.224Z,24.25
2022-11-03T17:12:34.185Z,24.00
2022-11-03T17:15:01.227Z,30.50
2022-11-03T17:17:28.264Z,37.00
2022-11-03T17:19:55.418Z,22.25
2022-11-03T17:22:22.778Z,30.00
2022-11-03T17:24:49.735Z,30.00
2022-11-03T17:27:28.342Z,18.50
2022-11-03T17:30:00.574Z,19.75
2022-11-03T17:32:30.514Z,34.00
2022-11-03T21:07:43.375Z,11.50
2022-11-03T21:10:11.391Z,13.50
2022-11-03T21:12:38.783Z,11.00
2022-11-03T21:15:57.744Z,8.00
2022-11-03T21:19:03.052Z,16.75
2022-11-03T21:21:32.926Z,16.00
2022-11-03T21:24:01.378Z,13.00
2022-11-03T21:26:28.318Z,19.75
2022-11-03T21:28:55.223Z,17.50
2022-11-03T21:31:23.710Z,19.50
2022-11-03T21:33:50.746Z,12.00
2022-11-03T21:36:18.147Z,12.75
2022-11-03T21:38:45.230Z,10.25
2022-11-03T21:41:31.029Z,11.00
2022-11-03T21:44:16.289Z,16.00
2022-11-03T21:46:44.436Z,13.25
2022-11-03T21:49:30.114Z,8.75
2022-11-03T21:51:57.443Z,23.50
2022-11-03T21:54:24.498Z,24.75
2022-11-03T21:56:51.467Z,23.00
2022-11-03T21:59:18.472Z,14.00
2022-11-03T22:01:45.423Z,21.25
2022-11-03T22:04:12.461Z,14.75
2022-11-03T22:06:39.414Z,22.25
2022-11-03T22:09:06.336Z,22.50
2022-11-03T22:11:33.224Z,16.00
2022-11-03T22:14:01.645Z,14.00
2022-11-03T22:16:41.795Z,10.25
2022-11-03T22:19:30.998Z,7.00
2022-11-03T22:22:17.819Z,6.00
2022-11-03T22:25:03.626Z,5.75
2022-11-03T22:27:32.303Z,15.00
2022-11-03T22:30:18.991Z,9.00
2022-11-03T22:32:54.231Z,11.00
2022-11-03T22:35:40.877Z,11.00
2022-11-03T22:38:15.241Z,1.25
2022-11-03T22:41:01.941Z,5.00
2022-11-03T22:43:47.628Z,12.00
2022-11-03T22:46:16.076Z,6.00
2022-11-03T22:48:43.713Z,8.00
2022-11-03T22:51:13.491Z,10.00
2022-11-03T22:53:59.371Z,10.25
2022-11-03T22:56:28.493Z,9.50
2022-11-03T22:58:55.742Z,7.00
2022-11-03T23:01:26.919Z,4.00
2022-11-03T23:03:54.435Z,8.00
2022-11-03T23:06:27.319Z,3.00
2022-11-03T23:08:55.601Z,8.00
2022-11-03T23:11:25.604Z,5.00
2022-11-03T23:14:00.864Z,6.00
2022-11-03T23:16:35.042Z,5.25
2022-11-03T23:19:20.849Z,4.00
2022-11-03T23:21:50.448Z,3.00
2022-11-03T23:24:40.574Z,4.00
2022-11-03T23:27:11.538Z,1.50
2022-11-03T23:29:38.487Z,7.50
2022-11-03T23:32:05.798Z,4.00
2022-11-03T23:34:35.353Z,10.00
2022-11-03T23:37:03.327Z,8.50
2022-11-03T23:39:30.291Z,12.25
2022-11-03T23:41:57.261Z,9.00
2022-11-03T23:44:24.154Z,4.75
2022-11-03T23:47:09.728Z,5.00
2022-11-03T23:49:36.659Z,8.00
2022-11-03T23:52:03.935Z,11.75
2022-11-03T23:54:30.903Z,15.50
2022-11-03T23:57:16.584Z,14.00
